createdAt,value
2023-06-05T00:01:53.402Z,100055.66
2023-06-05T00:04:25.756Z,100067.47
2023-06-05T00:06:55.961Z,100057.94
2023-06-05T00:09:25.721Z,100065.75
2023-06-05T00:11:56.016Z,100057.69
2023-06-05T00:14:25.965Z,100058.34
2023-06-05T00:16:57.466Z,100063.63
2023-06-05T00:19:30.963Z,100062.22
2023-06-05T00:22:00.722Z,100063.53
2023-06-05T00:24:30.603Z,100063.09
2023-06-05T00:27:00.451Z,100051.81
2023-06-05T00:29:30.575Z,100059.53
2023-06-05T00:32:00.494Z,100056.03
2023-06-05T00:34:33.114Z,100057.00
2023-06-05T00:37:02.886Z,100057.84
2023-06-05T00:39:32.591Z,100060.66
2023-06-05T00:42:02.386Z,100055.38
2023-06-05T00:44:32.101Z,100061.25
2023-06-05T00:47:02.318Z,100061.34
2023-06-05T00:49:35.849Z,100058.34
2023-06-05T00:52:06.042Z,100056.81
2023-06-05T00:54:36.494Z,100054.78
2023-06-05T00:57:08.284Z,100051.00
2023-06-05T00:59:41.787Z,100055.41
2023-06-05T01:02:11.745Z,100052.97
2023-06-05T01:04:45.009Z,100052.44
2023-06-05T01:07:15.395Z,100050.63
2023-06-05T01:09:45.771Z,100061.38
2023-06-05T01:12:21.956Z,100056.25
2023-06-05T01:14:53.270Z,100057.91
2023-06-05T01:17:25.768Z,100059.06
2023-06-05T01:19:59.832Z,100062.03
2023-06-05T01:22:29.936Z,100056.28
2023-06-05T01:25:02.692Z,100056.09
2023-06-05T01:27:39.088Z,100057.06
2023-06-05T01:30:18.527Z,100061.25
2023-06-05T01:32:57.142Z,100053.25
2023-06-05T01:35:29.367Z,100050.97
2023-06-05T01:38:03.926Z,100061.94
2023-06-05T01:40:38.288Z,100041.69
2023-06-05T01:43:11.293Z,100040.34
2023-06-05T01:45:42.196Z,100039.50
2023-06-05T01:48:12.558Z,100052.16
2023-06-05T01:50:43.673Z,100048.19
2023-06-05T01:53:14.040Z,100050.69
2023-06-05T01:55:47.904Z,100043.53
2023-06-05T01:58:18.069Z,100047.66
2023-06-05T02:00:48.085Z,100050.09
2023-06-05T02:03:20.821Z,100052.44
2023-06-05T02:05:52.478Z,100051.28
2023-06-05T02:08:24.052Z,100059.78
2023-06-05T02:10:56.865Z,100047.13
2023-06-05T02:13:28.941Z,100053.19
2023-06-05T02:15:58.820Z,100052.75
2023-06-05T02:18:30.822Z,100051.97
2023-06-05T02:21:00.589Z,100051.97
2023-06-05T02:23:30.805Z,100053.53
2023-06-05T02:26:03.206Z,100048.63
2023-06-05T02:28:33.316Z,100047.41
2023-06-05T02:31:03.719Z,100045.81
2023-06-05T02:33:33.468Z,100054.63
2023-06-05T02:36:03.209Z,100060.09
2023-06-05T02:38:33.187Z,100057.34
2023-06-05T02:41:05.778Z,100060.81
2023-06-05T02:43:35.568Z,100055.22
2023-06-05T02:46:05.543Z,100050.34
2023-06-05T02:48:35.626Z,100047.03
2023-06-05T02:51:07.842Z,100050.63
2023-06-05T02:53:38.026Z,100047.75
2023-06-05T02:56:10.455Z,100048.81
2023-06-05T02:58:40.952Z,100051.75
2023-06-05T03:01:12.603Z,100056.53
2023-06-05T03:03:50.047Z,100053.50
2023-06-05T03:06:28.412Z,100054.50
2023-06-05T03:08:59.435Z,100058.41
2023-06-05T03:11:32.595Z,100055.38
2023-06-05T03:14:02.957Z,100044.66
2023-06-05T03:16:42.599Z,100044.59
2023-06-05T03:19:13.295Z,100051.22
2023-06-05T03:21:45.055Z,100047.56
2023-06-05T03:24:18.087Z,100039.88
2023-06-05T03:26:55.971Z,100039.84
2023-06-05T03:29:26.670Z,100045.69
2023-06-05T03:31:56.614Z,100047.59
2023-06-05T03:34:27.114Z,100043.97
2023-06-05T03:37:01.220Z,100044.53
2023-06-05T03:39:32.265Z,100037.22
2023-06-05T03:42:08.140Z,100036.41
2023-06-05T03:44:37.994Z,100044.44
2023-06-05T03:47:09.304Z,100037.06
2023-06-05T03:49:47.250Z,100033.88
2023-06-05T03:52:24.757Z,100034.19
2023-06-05T03:54:56.884Z,100038.09
2023-06-05T03:57:29.450Z,100044.66
2023-06-05T03:59:59.244Z,100040.06
2023-06-05T04:02:29.254Z,100035.25
2023-06-05T04:04:59.122Z,100039.03
2023-06-05T04:07:29.338Z,100039.94
2023-06-05T04:09:59.388Z,100034.53
2023-06-05T04:12:31.997Z,100043.81
2023-06-05T04:15:03.839Z,100031.84
2023-06-05T04:17:33.932Z,100041.06
2023-06-05T04:20:04.223Z,100039.31
2023-06-05T04:22:35.330Z,100043.44
2023-06-05T04:25:05.101Z,100043.88
2023-06-05T04:27:37.874Z,100034.16
2023-06-05T04:30:09.638Z,100036.03
2023-06-05T04:32:40.767Z,100042.56
2023-06-05T04:35:12.813Z,100043.72
2023-06-05T04:37:42.918Z,100043.06
2023-06-05T04:40:12.911Z,100047.44
2023-06-05T04:42:46.131Z,100046.22
2023-06-05T04:45:17.878Z,100039.84
2023-06-05T04:47:50.962Z,100040.41
2023-06-05T04:50:27.395Z,100037.34
2023-06-05T04:53:10.153Z,100047.81
2023-06-05T04:55:41.190Z,100036.16
2023-06-05T04:58:14.602Z,100043.16
2023-06-05T05:00:45.681Z,100041.22
2023-06-05T05:03:18.843Z,100039.00
2023-06-05T05:05:49.427Z,100032.50
2023-06-05T05:08:21.944Z,100039.59
2023-06-05T05:10:51.809Z,100040.03
2023-06-05T05:13:24.294Z,100040.53
2023-06-05T05:15:55.647Z,100044.00
2023-06-05T05:18:25.449Z,100034.75
2023-06-05T05:20:55.246Z,100034.03
2023-06-05T05:23:27.267Z,100036.25
2023-06-05T05:25:57.141Z,100043.47
2023-06-05T05:28:29.700Z,100041.06
2023-06-05T05:31:00.034Z,100038.31
2023-06-05T05:33:29.799Z,100041.56
2023-06-05T05:35:59.703Z,100041.38
2023-06-05T05:38:29.404Z,100032.63
2023-06-05T05:40:59.146Z,100040.56
2023-06-05T05:43:31.692Z,100041.78
2023-06-05T05:46:01.456Z,100049.44
2023-06-05T05:48:32.045Z,100039.03
2023-06-05T05:51:01.917Z,100044.25
2023-06-05T05:53:31.975Z,100048.66
2023-06-05T05:56:01.962Z,100047.19
2023-06-05T05:58:34.298Z,100046.31
2023-06-05T06:01:04.298Z,100050.06
2023-06-05T06:03:34.896Z,100056.50
2023-06-05T06:06:04.939Z,100060.63
2023-06-05T06:08:34.688Z,100064.81
2023-06-05T06:11:05.278Z,100053.91
2023-06-05T06:13:37.742Z,100053.69
2023-06-05T06:16:07.858Z,100049.75
2023-06-05T06:18:37.651Z,100062.94
2023-06-05T06:21:08.326Z,100060.81
2023-06-05T06:23:38.208Z,100051.53
2023-06-05T06:26:09.387Z,100064.38
2023-06-05T06:28:41.714Z,100060.59
2023-06-05T06:31:11.920Z,100057.34
2023-06-05T06:33:41.998Z,100064.47
2023-06-05T06:36:11.901Z,100072.94
2023-06-05T06:38:41.626Z,100068.53
2023-06-05T06:41:11.463Z,100069.47
2023-06-05T06:43:43.833Z,100081.78
2023-06-05T06:46:14.966Z,100060.38
2023-06-05T06:48:44.871Z,100068.09
2023-06-05T06:51:14.615Z,100061.66
2023-06-05T06:53:44.439Z,100068.19
2023-06-05T06:56:16.385Z,100068.31
2023-06-05T06:58:49.383Z,100069.63
2023-06-05T07:01:21.091Z,100068.66
2023-06-05T07:03:50.909Z,100056.81
2023-06-05T07:06:23.013Z,100062.53
2023-06-05T07:08:52.982Z,100065.41
2023-06-05T07:11:23.017Z,100070.84
2023-06-05T07:13:55.645Z,100069.69
2023-06-05T07:16:25.387Z,100067.31
2023-06-05T07:18:56.302Z,100064.50
2023-06-05T07:21:26.228Z,100063.09
2023-06-05T07:23:55.960Z,100053.50
2023-06-05T07:26:25.774Z,100061.22
2023-06-05T07:28:58.078Z,100050.91
2023-06-05T07:31:27.832Z,100056.13
2023-06-05T07:33:57.607Z,100052.63
2023-06-05T07:36:27.359Z,100057.03
2023-06-05T07:38:57.718Z,100054.34
2023-06-05T07:41:27.484Z,100057.84
2023-06-05T07:43:59.901Z,100055.16
2023-06-05T07:46:29.705Z,100060.59
2023-06-05T07:49:02.323Z,100060.38
2023-06-05T07:51:36.912Z,100055.84
2023-06-05T07:54:06.732Z,100057.19
2023-06-05T07:56:37.806Z,100056.47
2023-06-05T07:59:11.807Z,100058.03
2023-06-05T08:01:42.322Z,100057.28
2023-06-05T08:04:13.234Z,100065.00
2023-06-05T08:06:43.216Z,100062.03
2023-06-05T08:09:13.433Z,100059.72
2023-06-05T08:11:43.544Z,100061.41
2023-06-05T08:14:15.891Z,100062.81
2023-06-05T08:16:45.641Z,100063.69
2023-06-05T08:19:15.413Z,100057.69
2023-06-05T08:21:45.181Z,100051.88
2023-06-05T08:24:14.873Z,100047.94
2023-06-05T08:26:44.599Z,100050.06
2023-06-05T08:29:16.955Z,100048.25
2023-06-05T08:31:46.767Z,100041.88
2023-06-05T08:34:16.565Z,100039.97
2023-06-05T08:36:46.337Z,100038.81
2023-06-05T08:39:16.719Z,100038.19
2023-06-05T08:41:47.038Z,100038.59
2023-06-05T08:44:19.439Z,100034.22
2023-06-05T08:46:50.579Z,100039.41
2023-06-05T08:49:25.534Z,100034.38
2023-06-05T08:51:57.425Z,100050.06
2023-06-05T08:54:27.305Z,100034.84
2023-06-05T08:56:57.273Z,100039.03
2023-06-05T08:59:30.337Z,100033.75
2023-06-05T09:02:00.374Z,100032.69
2023-06-05T09:04:31.577Z,100035.31
2023-06-05T09:07:01.750Z,100024.06
2023-06-05T09:09:31.554Z,100025.91
2023-06-05T09:12:09.979Z,100029.69
2023-06-05T09:14:42.378Z,100035.78
2023-06-05T09:17:18.135Z,100030.50
2023-06-05T09:19:48.596Z,100029.34
2023-06-05T09:22:19.996Z,100025.47
2023-06-05T09:25:02.642Z,100026.22
2023-06-05T09:27:32.425Z,100027.59
2023-06-05T09:30:09.207Z,100025.25
2023-06-05T09:32:40.629Z,100023.31
2023-06-05T09:35:12.587Z,100026.13
2023-06-05T09:37:46.912Z,100022.00
2023-06-05T09:40:18.345Z,100022.56
2023-06-05T09:42:48.141Z,100023.63
2023-06-05T09:45:20.660Z,100025.44
2023-06-05T09:47:54.346Z,100017.88
2023-06-05T09:50:26.237Z,100017.84
2023-06-05T09:52:58.829Z,100012.25
2023-06-05T09:55:29.652Z,100004.03
2023-06-05T09:58:03.576Z,100001.75
2023-06-05T10:00:37.931Z,100009.84
2023-06-05T10:03:12.089Z,100004.22
2023-06-05T10:05:43.990Z,99993.38
2023-06-05T10:08:15.367Z,99998.00
2023-06-05T10:10:46.252Z,99998.69
2023-06-05T10:13:19.440Z,99995.78
2023-06-05T10:15:56.089Z,99989.41
2023-06-05T10:18:26.630Z,99991.63
2023-06-05T10:20:57.883Z,99999.66
2023-06-05T10:23:28.861Z,99993.13
2023-06-05T10:25:59.838Z,99981.41
2023-06-05T10:28:43.867Z,99986.13
2023-06-05T10:31:27.836Z,99983.69
2023-06-05T10:34:07.977Z,99978.19
2023-06-05T10:36:58.202Z,99973.88
2023-06-05T10:39:29.915Z,99976.78
2023-06-05T10:42:00.343Z,99983.06
2023-06-05T10:44:45.971Z,99981.47
2023-06-05T10:47:46.888Z,99979.31
2023-06-05T10:50:32.409Z,99977.03
2023-06-05T10:53:02.434Z,99972.63
2023-06-05T10:55:45.743Z,99969.84
2023-06-05T10:58:18.012Z,99975.69
2023-06-05T11:01:19.700Z,99973.16
2023-06-05T11:04:02.997Z,99973.03
2023-06-05T11:06:35.798Z,99975.78
2023-06-05T11:09:13.760Z,99972.00
2023-06-05T11:12:00.199Z,99965.56
2023-06-05T11:14:50.728Z,99969.38
2023-06-05T11:17:30.669Z,99969.94
2023-06-05T11:20:00.767Z,99965.06
2023-06-05T11:22:36.903Z,99964.25
2023-06-05T11:25:34.268Z,99949.38
2023-06-05T11:28:06.824Z,99953.25
2023-06-05T11:30:48.893Z,99958.28
2023-06-05T11:33:22.770Z,99955.41
2023-06-05T11:35:54.085Z,99957.03
2023-06-05T11:38:26.910Z,99949.16
2023-06-05T11:40:58.236Z,99945.63
2023-06-05T11:43:28.016Z,99950.56
2023-06-05T11:45:59.014Z,99946.72
2023-06-05T11:48:29.882Z,99951.25
2023-06-05T11:51:02.004Z,99948.44
2023-06-05T11:53:38.515Z,99944.84
2023-06-05T11:56:17.889Z,99935.56
2023-06-05T11:58:48.281Z,99940.06
2023-06-05T12:01:23.452Z,99940.34
2023-06-05T12:04:06.360Z,99942.09
2023-06-05T12:06:38.668Z,99938.75
2023-06-05T12:09:15.718Z,99926.47
2023-06-05T12:11:46.653Z,99926.53
2023-06-05T12:14:17.864Z,99926.22
2023-06-05T12:16:47.566Z,99932.44
2023-06-05T12:19:19.757Z,99927.56
2023-06-05T12:21:51.762Z,99920.88
2023-06-05T12:24:29.845Z,99911.91
2023-06-05T12:27:00.786Z,99912.63
2023-06-05T12:29:32.290Z,99919.94
2023-06-05T12:32:03.525Z,99917.38
2023-06-05T12:37:31.259Z,99915.31
2023-06-05T12:40:08.521Z,99906.59
2023-06-05T12:42:39.475Z,99904.22
2023-06-05T12:45:11.131Z,99922.31
2023-06-05T12:47:42.605Z,99914.53
2023-06-05T12:50:15.084Z,99901.63
2023-06-05T12:52:45.550Z,99902.47
2023-06-05T12:55:17.874Z,99892.72
2023-06-05T12:57:47.762Z,99896.94
2023-06-05T13:00:20.220Z,99895.44
2023-06-05T13:02:50.142Z,99885.41
2023-06-05T13:05:19.941Z,99885.63
2023-06-05T13:07:51.016Z,99882.22
2023-06-05T13:10:23.842Z,99886.13
2023-06-05T13:12:53.766Z,99883.69
2023-06-05T13:15:23.513Z,99890.53
2023-06-05T13:17:53.267Z,99871.47
2023-06-05T13:20:23.042Z,99870.66
2023-06-05T13:22:52.915Z,99873.50
2023-06-05T13:25:25.286Z,99876.09
2023-06-05T13:27:55.097Z,99869.50
2023-06-05T13:30:25.785Z,99869.16
2023-06-05T13:32:55.895Z,99860.16
2023-06-05T13:35:25.837Z,99866.69
2023-06-05T13:37:55.532Z,99865.69
2023-06-05T13:40:28.158Z,99861.41
2023-06-05T13:42:58.007Z,99852.81
2023-06-05T13:45:27.888Z,99853.06
2023-06-05T13:47:57.969Z,99846.34
2023-06-05T13:50:28.005Z,99845.94
2023-06-05T13:52:57.789Z,99847.72
2023-06-05T13:55:30.167Z,99842.16
2023-06-05T13:58:02.631Z,99837.53
2023-06-05T14:00:33.280Z,99838.59
2023-06-05T14:03:03.391Z,99844.72
2023-06-05T14:05:34.201Z,99837.28
2023-06-05T14:08:03.964Z,99838.16
2023-06-05T14:10:38.014Z,99833.50
2023-06-05T14:13:08.265Z,99832.84
2023-06-05T14:15:38.383Z,99827.25
2023-06-05T14:18:10.734Z,99834.03
2023-06-05T14:20:40.905Z,99819.84
2023-06-05T14:23:11.700Z,99812.19
2023-06-05T14:25:43.972Z,99809.06
2023-06-05T14:28:13.725Z,99808.53
2023-06-05T14:30:43.597Z,99812.25
2023-06-05T14:33:14.272Z,99811.44
2023-06-05T14:35:44.179Z,99808.06
2023-06-05T14:38:14.339Z,99805.16
2023-06-05T14:40:49.143Z,99807.84
2023-06-05T14:43:18.894Z,99800.22
2023-06-05T14:45:48.717Z,99804.13
2023-06-05T14:48:18.526Z,99802.88
2023-06-05T14:50:48.352Z,99799.00
2023-06-05T14:53:18.107Z,99794.09
2023-06-05T14:55:50.474Z,99799.22
2023-06-05T14:58:20.639Z,99791.50
2023-06-05T15:00:52.977Z,99794.53
2023-06-05T15:03:26.010Z,99792.25
2023-06-05T15:05:57.510Z,99788.34
2023-06-05T15:08:28.577Z,99786.19
2023-06-05T15:11:04.093Z,99783.50
2023-06-05T15:13:33.919Z,99779.31
2023-06-05T15:16:04.145Z,99787.78
2023-06-05T15:18:33.881Z,99786.25
2023-06-05T15:21:03.735Z,99787.69
2023-06-05T15:23:33.659Z,99780.78
2023-06-05T15:26:06.065Z,99774.16
2023-06-05T15:28:36.023Z,99770.03
2023-06-05T15:31:08.146Z,99772.16
2023-06-05T15:33:38.471Z,99767.38
2023-06-05T15:36:09.166Z,99775.78
2023-06-05T15:38:39.253Z,99770.38
2023-06-05T15:41:14.134Z,99766.53
2023-06-05T15:43:44.738Z,99773.81
2023-06-05T15:46:14.669Z,99767.63
2023-06-05T15:48:44.459Z,99770.28
2023-06-05T15:51:14.382Z,99767.84
2023-06-05T15:53:55.830Z,99769.59
2023-06-05T15:56:30.757Z,99776.25
2023-06-05T15:59:00.511Z,99772.75
2023-06-05T16:01:30.294Z,99758.16
2023-06-05T16:04:00.293Z,99765.41
2023-06-05T16:06:30.209Z,99770.31
2023-06-05T16:09:00.621Z,99769.84
2023-06-05T16:11:33.006Z,99763.97
2023-06-05T16:14:03.882Z,99755.16
2023-06-05T16:16:33.620Z,99763.03
2023-06-05T16:19:04.345Z,99759.59
2023-06-05T16:21:35.580Z,99758.25
2023-06-05T16:24:05.533Z,99753.41
2023-06-05T16:26:39.526Z,99752.31
2023-06-05T16:29:09.498Z,99753.50
2023-06-05T16:31:39.505Z,99749.88
2023-06-05T16:34:15.959Z,99757.69
2023-06-05T16:36:46.038Z,99754.78
2023-06-05T16:39:17.016Z,99746.97
2023-06-05T16:41:49.407Z,99749.78
2023-06-05T16:44:19.510Z,99747.75
2023-06-05T16:46:50.082Z,99750.25
2023-06-05T16:49:20.048Z,99746.03
2023-06-05T16:51:49.777Z,99742.69
2023-06-05T16:54:21.393Z,99745.09
2023-06-05T16:56:54.623Z,99737.13
2023-06-05T16:59:24.442Z,99746.28
2023-06-05T17:01:54.752Z,99739.13
2023-06-05T17:04:25.255Z,99746.38
2023-06-05T17:06:55.542Z,99745.22
2023-06-05T17:09:28.239Z,99745.47
2023-06-05T17:12:00.929Z,99740.91
2023-06-05T17:14:30.736Z,99740.88
2023-06-05T17:17:01.633Z,99738.56
2023-06-05T17:19:33.829Z,99732.16
2023-06-05T17:22:03.685Z,99732.97
2023-06-05T17:24:34.158Z,99730.59
2023-06-05T17:27:07.235Z,99729.19
2023-06-05T17:29:36.997Z,99736.69
2023-06-05T17:32:09.707Z,99731.06
2023-06-05T17:34:39.874Z,99729.94
2023-06-05T17:37:09.862Z,99730.69
2023-06-05T17:39:39.603Z,99729.56
2023-06-05T17:42:12.455Z,99734.13
2023-06-05T17:44:42.291Z,99732.22
2023-06-05T17:47:12.118Z,99733.03
2023-06-05T18:01:56.926Z,99722.56
2023-06-05T18:04:27.256Z,99727.25
2023-06-05T18:06:57.322Z,99728.97
2023-06-05T18:09:27.235Z,99725.25
2023-06-05T18:11:56.970Z,99722.69
2023-06-05T18:14:27.122Z,99720.34
2023-06-05T18:16:59.848Z,99724.56
2023-06-05T18:19:29.769Z,99724.47
2023-06-05T18:21:59.768Z,99730.75
2023-06-05T18:24:29.719Z,99726.38
2023-06-05T18:26:59.686Z,99732.88
2023-06-05T18:29:29.347Z,99727.38
2023-06-05T18:32:01.877Z,99729.47
2023-06-05T18:34:34.530Z,99722.94
2023-06-05T18:37:04.287Z,99722.78
2023-06-05T18:39:33.957Z,99725.00
2023-06-05T18:42:03.740Z,99726.81
2023-06-05T18:44:33.479Z,99719.13
2023-06-05T18:47:06.383Z,99730.97
2023-06-05T18:49:36.639Z,99724.75
2023-06-05T18:52:07.623Z,99724.84
2023-06-05T18:54:37.998Z,99732.72
2023-06-05T18:57:08.708Z,99740.91
2023-06-05T18:59:38.455Z,99750.91
2023-06-05T19:02:10.967Z,99745.88
2023-06-05T19:04:42.130Z,99739.09
2023-06-05T19:07:11.806Z,99737.84
2023-06-05T19:09:41.495Z,99739.25
2023-06-05T19:12:12.267Z,99741.94
2023-06-05T19:14:42.073Z,99740.63
2023-06-05T19:17:14.540Z,99736.84
2023-06-05T19:19:44.430Z,99740.03
2023-06-05T19:22:14.161Z,99737.56
2023-06-05T19:24:43.903Z,99736.56
2023-06-05T19:27:13.608Z,99738.34
2023-06-05T19:29:43.618Z,99741.00
2023-06-05T19:32:15.993Z,99740.28
2023-06-05T19:34:46.037Z,99740.25
2023-06-05T19:37:16.214Z,99745.84
2023-06-05T19:39:46.056Z,99745.63
2023-06-05T19:42:15.817Z,99751.91
2023-06-05T19:44:45.582Z,99745.69
2023-06-05T19:47:18.007Z,99748.50
2023-06-05T19:49:47.823Z,99747.69
2023-06-05T19:52:17.563Z,99750.13
2023-06-05T19:54:47.528Z,99754.63
2023-06-05T19:57:17.383Z,99754.34
2023-06-05T19:59:47.240Z,99751.09
2023-06-05T20:02:19.527Z,99755.84
2023-06-05T20:04:49.281Z,99766.53
2023-06-05T20:07:19.006Z,99764.94
2023-06-05T20:09:48.685Z,99767.41
2023-06-05T20:12:18.584Z,99768.31
2023-06-05T20:14:48.730Z,99765.94
2023-06-05T20:17:21.225Z,99774.03
2023-06-05T20:19:51.177Z,99774.78
2023-06-05T20:22:21.573Z,99773.56
2023-06-05T20:24:54.836Z,99775.94
2023-06-05T20:27:24.513Z,99776.72
2023-06-05T20:29:54.185Z,99784.28
2023-06-05T20:32:26.469Z,99778.25
2023-06-05T20:34:58.994Z,99788.59
2023-06-05T20:37:31.634Z,99788.31
2023-06-05T20:40:06.599Z,99782.00
2023-06-05T20:42:36.946Z,99785.34
2023-06-05T20:45:08.895Z,99781.09
2023-06-05T20:47:42.279Z,99778.09
2023-06-05T20:50:15.392Z,99775.66
2023-06-05T20:52:45.104Z,99784.28
2023-06-05T20:55:14.825Z,99786.19
2023-06-05T20:57:44.568Z,99788.91
2023-06-05T21:00:16.045Z,99797.66
2023-06-05T21:02:48.678Z,99788.41
2023-06-05T21:05:18.608Z,99796.50
2023-06-05T21:07:49.416Z,99780.47
2023-06-05T21:10:19.226Z,99793.09
2023-06-05T21:12:48.990Z,99796.97
2023-06-05T21:15:19.135Z,99789.81
2023-06-05T21:17:51.880Z,99790.38
2023-06-05T21:20:21.674Z,99799.94
2023-06-05T21:22:51.346Z,99799.34
2023-06-05T21:25:21.102Z,99809.13
2023-06-05T21:27:50.774Z,99802.00
2023-06-05T21:30:20.526Z,99798.38
2023-06-05T21:32:53.602Z,99791.22
2023-06-05T21:35:23.551Z,99800.09
2023-06-05T21:37:53.587Z,99800.84
2023-06-05T21:40:23.312Z,99802.09
2023-06-05T21:42:53.391Z,99807.66
2023-06-05T21:45:23.511Z,99792.69
2023-06-05T21:47:55.988Z,99793.94
2023-06-05T21:50:25.953Z,99791.22
2023-06-05T21:52:56.140Z,99793.38
2023-06-05T21:55:26.975Z,99785.41
2023-06-05T21:57:57.903Z,99795.63
2023-06-05T22:00:27.897Z,99801.03
2023-06-05T22:03:00.284Z,99792.09
2023-06-05T22:05:30.857Z,99795.41
2023-06-05T22:08:03.128Z,99802.09
2023-06-05T22:10:32.869Z,99795.03
2023-06-05T22:13:02.597Z,99793.84
2023-06-05T22:15:34.055Z,99791.66
2023-06-05T22:18:07.068Z,99795.09
2023-06-05T22:20:40.995Z,99792.22
2023-06-05T22:23:10.717Z,99798.47
2023-06-05T22:25:52.824Z,99799.72
2023-06-05T22:28:23.019Z,99789.34
2023-06-05T22:30:53.101Z,99791.06
2023-06-05T22:33:25.725Z,99790.84
2023-06-05T22:35:55.402Z,99793.78
2023-06-05T22:38:27.033Z,99793.84
2023-06-05T22:40:56.829Z,99792.44
2023-06-05T22:43:26.595Z,99798.50
2023-06-05T22:45:56.644Z,99793.84
2023-06-05T22:48:30.108Z,99793.38
2023-06-05T22:51:00.469Z,99796.66
2023-06-05T22:53:31.719Z,99794.66
2023-06-05T22:56:01.522Z,99798.41
2023-06-05T22:58:31.250Z,99803.00
2023-06-05T23:01:01.356Z,99792.78
2023-06-05T23:03:34.594Z,99782.91
2023-06-05T23:06:05.338Z,99789.41
2023-06-05T23:08:35.050Z,99788.97
2023-06-05T23:11:04.799Z,99796.41
2023-06-05T23:13:34.484Z,99796.03
2023-06-05T23:16:04.467Z,99792.34
2023-06-05T23:18:36.749Z,99793.16
2023-06-05T23:21:06.878Z,99799.31
2023-06-05T23:23:36.563Z,99785.38
2023-06-05T23:26:08.630Z,99784.63
2023-06-05T23:28:38.950Z,99799.88
2023-06-05T23:31:09.120Z,99789.41
2023-06-05T23:33:41.536Z,99794.38
2023-06-05T23:36:12.728Z,99788.38
2023-06-05T23:38:42.481Z,99793.53
2023-06-05T23:41:12.300Z,99790.66
2023-06-05T23:43:42.918Z,99791.22
2023-06-05T23:46:12.982Z,99788.28
2023-06-05T23:48:45.281Z,99786.44
2023-06-05T23:51:15.507Z,99788.94
2023-06-05T23:53:45.215Z,99788.16
2023-06-05T23:56:14.890Z,99786.69
2023-06-05T23:58:44.721Z,99788.34
